Time;durP1;ratioP1;P1;durP2;ratioP2;P2;SDS_P1;SDS_P2;PMS_P1;PMS_P2;Temp;Humidity;BMP_temperature;BMP_pressure;BME280_temperature;BME280_humidity;BME280_pressure;Samples;Min_cycle;Max_cycle;Signal;HPM_P1;HPM_P2
2023/04/26 00:00:23;;;;;;;5.67;2.97;;;;;;;;;;5036031;28;20176;-83
2023/04/26 00:02:49;;;;;;;6.47;2.90;;;;;;;;;;5034367;28;20230;-84
2023/04/26 00:05:17;;;;;;;5.33;2.57;;;;;;;;;;5018140;28;20188;-83
2023/04/26 00:07:43;;;;;;;5.10;2.77;;;;;;;;;;5018178;28;20209;-83
2023/04/26 00:10:09;;;;;;;4.33;3.17;;;6.40;99.90;;;;;;5035523;28;20319;-82
2023/04/26 00:12:35;;;;;;;3.13;2.20;;;;;;;;;;5035638;28;20259;-83
2023/04/26 00:15:02;;;;;;;5.20;2.80;;;;;;;;;;5034053;28;20181;-84
2023/04/26 00:17:28;;;;;;;6.03;2.73;;;;;;;;;;5034419;28;20263;-83
2023/04/26 00:19:56;;;;;;;5.03;3.30;;;;;;;;;;5035471;28;20180;-84
2023/04/26 00:22:22;;;;;;;3.77;2.50;;;6.50;99.90;;;;;;5035434;28;20176;-83
2023/04/26 00:24:48;;;;;;;5.30;2.90;;;;;;;;;;5034089;28;20172;-83
2023/04/26 00:27:14;;;;;;;5.67;3.33;;;6.50;99.90;;;;;;5033617;28;20285;-82
2023/04/26 00:29:40;;;;;;;4.93;3.37;;;;;;;;;;5017550;28;20227;-83
2023/04/26 00:32:06;;;;;;;4.70;3.33;;;6.50;99.90;;;;;;5033869;28;20219;-83
2023/04/26 00:34:33;;;;;;;7.00;2.87;;;6.60;99.90;;;;;;5017527;28;20206;-83
2023/04/26 00:36:59;;;;;;;5.43;3.13;;;;;;;;;;5035084;28;20615;-83
2023/04/26 00:39:26;;;;;;;5.47;2.73;;;;;;;;;;5034935;28;20203;-83
2023/04/26 00:41:52;;;;;;;5.60;3.63;;;;;;;;;;5035077;28;20188;-84
2023/04/26 00:44:18;;;;;;;3.40;2.67;;;;;;;;;;5035012;28;20185;-83
2023/04/26 00:46:44;;;;;;;3.90;2.63;;;;;;;;;;5035344;28;20189;-84
2023/04/26 00:49:17;;;;;;;3.70;2.37;;;6.70;99.90;;;;;;5034664;28;20196;-83
2023/04/26 00:51:44;;;;;;;7.17;2.63;;;6.70;99.90;;;;;;5034262;28;20772;-83
2023/04/26 00:54:10;;;;;;;5.97;3.03;;;;;;;;;;5033489;28;20204;-83
2023/04/26 00:56:38;;;;;;;5.30;3.10;;;6.70;99.90;;;;;;5033305;28;20188;-83
2023/04/26 00:59:04;;;;;;;4.37;2.97;;;;;;;;;;5034883;28;20258;-83
2023/04/26 01:01:30;;;;;;;4.50;3.00;;;;;;;;;;5033696;28;20185;-84
2023/04/26 01:03:56;;;;;;;4.47;3.17;;;;;;;;;;5033136;28;20184;-88
2023/04/26 01:06:22;;;;;;;6.37;2.70;;;;;;;;;;5033428;28;20191;-83
2023/04/26 01:08:52;;;;;;;4.70;3.30;;;6.70;99.90;;;;;;5034717;28;20204;-84
2023/04/26 01:11:21;;;;;;;3.27;2.60;;;6.70;99.90;;;;;;5034316;28;20188;-84
2023/04/26 01:13:47;;;;;;;3.43;2.23;;;;;;;;;;5033245;28;20181;-83
2023/04/26 01:16:14;;;;;;;3.80;2.47;;;6.70;99.90;;;;;;5033042;28;20180;-84
2023/04/26 01:18:40;;;;;;;5.87;3.13;;;6.70;99.90;;;;;;5033112;28;20198;-85
2023/04/26 01:21:06;;;;;;;4.47;2.73;;;;;;;;;;5016090;28;20197;-85
2023/04/26 01:23:32;;;;;;;5.03;3.07;;;6.70;99.90;;;;;;5016814;28;20181;-83
2023/04/26 01:25:58;;;;;;;3.03;2.63;;;6.70;99.90;;;;;;5034042;28;20286;-84
2023/04/26 01:28:23;;;;;;;3.60;3.00;;;6.70;99.90;;;;;;5016278;28;20259;-84
2023/04/26 01:30:49;;;;;;;6.10;3.00;;;6.70;99.90;;;;;;5033956;28;20553;-83
2023/04/26 01:33:15;;;;;;;6.07;3.57;;;6.80;99.90;;;;;;5016430;28;20181;-83
2023/04/26 01:35:41;;;;;;;3.13;2.00;;;6.70;99.90;;;;;;5034311;28;20180;-84
2023/04/26 01:38:07;;;;;;;3.60;2.43;;;6.70;99.90;;;;;;5032767;28;20269;-85
2023/04/26 01:40:33;;;;;;;4.23;2.87;;;;;;;;;;5016277;28;20308;-85
2023/04/26 01:42:59;;;;;;;3.73;2.97;;;;;;;;;;5033999;28;20208;-84
2023/04/26 01:45:26;;;;;;;4.50;2.77;;;6.80;99.90;;;;;;5016106;28;20206;-84
2023/04/26 01:47:52;;;;;;;3.57;2.43;;;;;;;;;;5032552;28;20208;-84
2023/04/26 01:50:18;;;;;;;3.83;2.60;;;;;;;;;;5033674;28;20235;-84
2023/04/26 01:52:44;;;;;;;2.73;2.10;;;;;;;;;;5032735;28;20172;-84
2023/04/26 01:55:10;;;;;;;3.63;2.27;;;6.70;99.90;;;;;;5033671;28;20177;-83
2023/04/26 01:57:35;;;;;;;3.60;2.37;;;6.70;99.90;;;;;;5032723;28;20258;-84
2023/04/26 02:00:02;;;;;;;5.97;2.60;;;;;;;;;;5032586;28;20721;-84
2023/04/26 02:02:29;;;;;;;3.67;2.30;;;;;;;;;;5034401;28;20177;-84
2023/04/26 02:04:55;;;;;;;2.70;1.93;;;;;;;;;;5034880;28;20303;-84
2023/04/26 02:07:23;;;;;;;3.30;2.13;;;;;;;;;;5033044;28;20181;-84
2023/04/26 02:09:49;;;;;;;2.77;1.97;;;;;;;;;;5033469;28;20184;-84
2023/04/26 02:12:15;;;;;;;2.20;2.00;;;;;;;;;;5032238;28;20173;-84
2023/04/26 02:14:41;;;;;;;1.67;1.57;;;;;;;;;;5033917;28;20184;-84
2023/04/26 02:17:07;;;;;;;2.60;1.93;;;;;;;;;;5032264;28;20177;-84
2023/04/26 02:19:33;;;;;;;1.83;1.53;;;;;;;;;;5016029;28;20184;-84
2023/04/26 02:21:59;;;;;;;2.67;1.60;;;;;;;;;;5032998;28;20642;-84
2023/04/26 02:24:25;;;;;;;2.10;1.53;;;6.10;99.90;;;;;;5032814;28;20217;-84
2023/04/26 02:26:53;;;;;;;1.97;1.80;;;;;;;;;;5033203;28;20240;-83
2023/04/26 02:29:19;;;;;;;1.87;1.77;;;;;;;;;;5032020;28;20712;-83
2023/04/26 02:31:47;;;;;;;2.07;1.60;;;;;;;;;;5031997;28;20210;-84
2023/04/26 02:34:13;;;;;;;2.60;1.53;;;;;;;;;;5032192;28;20263;-83
2023/04/26 02:36:39;;;;;;;3.60;1.70;;;;;;;;;;5033432;28;20235;-83
2023/04/26 02:39:05;;;;;;;2.63;1.40;;;;;;;;;;5031823;28;20187;-84
2023/04/26 02:41:32;;;;;;;1.53;1.40;;;;;;;;;;5015482;28;20231;-84
2023/04/26 02:43:59;;;;;;;1.30;1.20;;;;;;;;;;5031911;28;20185;-84
2023/04/26 02:46:25;;;;;;;2.00;1.50;;;6.40;99.90;;;;;;5015343;28;20234;-84
2023/04/26 02:48:50;;;;;;;1.43;1.23;;;6.40;99.90;;;;;;5032707;28;20212;-84
2023/04/26 02:51:16;;;;;;;1.77;1.27;;;;;;;;;;5032602;28;20191;-84
2023/04/26 02:53:42;;;;;;;1.73;1.43;;;6.70;99.90;;;;;;5018514;28;20690;-83
2023/04/26 02:56:07;;;;;;;1.47;1.37;;;6.40;99.90;;;;;;5019366;28;20181;-84
2023/04/26 02:58:33;;;;;;;1.50;1.40;;;;;;;;;;5035568;28;20181;-84
2023/04/26 03:00:59;;;;;;;2.00;1.30;;;6.70;99.90;;;;;;5019470;28;20192;-83
2023/04/26 03:03:25;;;;;;;1.40;1.30;;;;;;;;;;5037146;28;20208;-85
2023/04/26 03:05:51;;;;;;;1.60;1.33;;;6.30;99.90;;;;;;5036962;28;20185;-84
2023/04/26 03:08:16;;;;;;;1.60;1.20;;;6.20;99.90;;;;;;5019080;28;20219;-85
2023/04/26 03:10:45;;;;;;;1.47;1.20;;;6.40;99.90;;;;;;5003003;28;20547;-83
2023/04/26 03:13:11;;;;;;;1.40;1.30;;;;;;;;;;5036819;28;20184;-84
2023/04/26 03:15:36;;;;;;;1.50;1.40;;;6.30;99.90;;;;;;5018813;28;20689;-84
2023/04/26 03:18:02;;;;;;;5.30;1.07;;;6.40;99.90;;;;;;5035176;28;20230;-84
2023/04/26 03:20:28;;;;;;;2.23;1.60;;;6.40;99.90;;;;;;5035348;28;20185;-84
2023/04/26 03:22:54;;;;;;;1.43;1.20;;;;;;;;;;5035306;28;20216;-84
2023/04/26 03:25:20;;;;;;;1.27;1.17;;;;;;;;;;5034657;28;20188;-83
2023/04/26 03:27:47;;;;;;;1.27;1.17;;;;;;;;;;5036573;28;20216;-83
2023/04/26 03:30:13;;;;;;;2.73;1.53;;;6.20;99.90;;;;;;5036308;28;20189;-84
2023/04/26 03:32:39;;;;;;;1.57;1.40;;;;;;;;;;5018257;28;20204;-83
2023/04/26 03:35:05;;;;;;;1.30;1.20;;;;;;;;;;5036511;28;20259;-83
2023/04/26 03:37:31;;;;;;;2.73;1.50;;;;;;;;;;5030641;28;20185;-84
2023/04/26 03:39:57;;;;;;;0.90;0.90;;;6.30;99.90;;;;;;5022230;28;20197;-82
2023/04/26 03:42:23;;;;;;;3.13;1.97;;;6.20;99.90;;;;;;5013703;28;20251;-85
2023/04/26 03:44:48;;;;;;;2.20;1.63;;;6.20;99.90;;;;;;4997231;28;20536;-83
2023/04/26 03:47:14;;;;;;;1.70;1.20;;;6.20;99.90;;;;;;5019969;28;20204;-83
2023/04/26 03:49:40;;;;;;;1.70;1.53;;;;;;;;;;5007456;28;20318;-84
2023/04/26 03:52:06;;;;;;;1.43;1.27;;;6.20;99.90;;;;;;5016177;28;20180;-83
2023/04/26 03:54:32;;;;;;;4.73;1.60;;;;;;;;;;5032845;28;20272;-83
2023/04/26 03:56:58;;;;;;;1.33;1.23;;;;;;;;;;5002448;28;20640;-82
2023/04/26 03:59:24;;;;;;;1.57;1.47;;;;;;;;;;5033627;28;20212;-83
2023/04/26 04:01:51;;;;;;;1.10;1.00;;;;;;;;;;5033897;28;20189;-82
2023/04/26 04:04:17;;;;;;;1.20;1.10;;;;;;;;;;5015765;28;20238;-82
2023/04/26 04:06:43;;;;;;;1.50;1.40;;;;;;;;;;5032478;28;20201;-82
2023/04/26 04:09:08;;;;;;;1.50;1.40;;;5.60;99.90;;;;;;5031936;28;20757;-81
2023/04/26 04:11:34;;;;;;;1.97;1.40;;;;;;;;;;5033910;28;20180;-82
2023/04/26 04:14:01;;;;;;;2.00;1.70;;;;;;;;;;5002124;28;20197;-82
2023/04/26 04:16:27;;;;;;;5.13;1.07;;;;;;;;;;5032966;28;20279;-82
2023/04/26 04:18:53;;;;;;;0.77;0.77;;;;;;;;;;5031991;28;20200;-83
2023/04/26 04:21:19;;;;;;;1.60;1.37;;;;;;;;;;5031935;28;20185;-83
2023/04/26 04:23:46;;;;;;;5.97;1.63;;;5.40;99.90;;;;;;4995409;28;20193;-83
2023/04/26 04:26:12;;;;;;;1.57;1.43;;;5.20;99.90;;;;;;5012942;28;20237;-82
2023/04/26 04:28:40;;;;;;;1.37;1.27;;;5.70;99.90;;;;;;5010663;28;20244;-82
2023/04/26 04:31:10;;;;;;;2.37;1.20;;;;;;;;;;5011920;28;20648;-83
2023/04/26 04:33:36;;;;;;;1.50;1.40;;;;;;;;;;5013066;28;20290;-83
2023/04/26 04:36:02;;;;;;;1.87;1.20;;;;;;;;;;5009212;28;20178;-84
2023/04/26 04:38:29;;;;;;;2.30;1.67;;;;;;;;;;5028646;28;20197;-84
2023/04/26 04:40:55;;;;;;;3.97;1.07;;;;;;;;;;5028749;28;20264;-85
2023/04/26 04:43:22;;;;;;;1.37;1.10;;;;;;;;;;5011719;28;20189;-85
2023/04/26 04:45:48;;;;;;;1.33;1.27;;;;;;;;;;5011201;28;20505;-85
2023/04/26 04:48:14;;;;;;;1.77;1.67;;;;;;;;;;5012597;28;20209;-83
2023/04/26 04:50:41;;;;;;;5.47;2.20;;;;;;;;;;5012113;28;20197;-84
2023/04/26 04:53:08;;;;;;;4.63;1.60;;;;;;;;;;5012865;28;20189;-85
2023/04/26 04:55:35;;;;;;;3.23;1.77;;;;;;;;;;5007660;28;20268;-84
2023/04/26 04:58:02;;;;;;;4.40;2.10;;;;;;;;;;5016504;28;20205;-84
2023/04/26 05:00:28;;;;;;;3.17;1.67;;;;;;;;;;5015278;28;20199;-84
2023/04/26 05:02:55;;;;;;;2.37;1.80;;;;;;;;;;5012707;28;20284;-83
2023/04/26 05:05:21;;;;;;;3.53;1.80;;;;;;;;;;5011611;28;20668;-83
2023/04/26 05:07:47;;;;;;;1.93;1.63;;;;;;;;;;5013711;28;20220;-84
2023/04/26 05:10:13;;;;;;;2.00;1.80;;;;;;;;;;5013222;28;20205;-84
2023/04/26 05:12:39;;;;;;;2.53;1.67;;;;;;;;;;5029657;28;20279;-84
2023/04/26 05:15:06;;;;;;;2.37;1.53;;;5.60;99.90;;;;;;5029031;28;20280;-84
2023/04/26 05:17:32;;;;;;;9.60;1.97;;;5.80;99.90;;;;;;5014009;28;20174;-87
2023/04/26 05:19:58;;;;;;;3.63;1.90;;;;;;;;;;5029583;28;20260;-84
2023/04/26 05:22:24;;;;;;;5.30;2.87;;;;;;;;;;5013345;28;20271;-84
2023/04/26 05:24:51;;;;;;;2.40;1.60;;;;;;;;;;5029277;28;20185;-84
2023/04/26 05:27:17;;;;;;;7.37;2.20;;;;;;;;;;5012986;28;20691;-84
2023/04/26 05:29:43;;;;;;;6.77;2.00;;;;;;;;;;5014123;28;20266;-84
2023/04/26 05:32:09;;;;;;;3.77;2.17;;;;;;;;;;5029337;28;20690;-84
2023/04/26 05:34:36;;;;;;;3.07;1.77;;;;;;;;;;5029128;28;20190;-86
2023/04/26 05:37:02;;;;;;;4.60;1.87;;;;;;;;;;5013497;28;20251;-84
2023/04/26 05:39:28;;;;;;;2.67;1.67;;;;;;;;;;5012756;28;20185;-84
2023/04/26 05:41:54;;;;;;;3.70;2.00;;;;;;;;;;5012415;28;20191;-81
2023/04/26 05:44:20;;;;;;;2.47;1.53;;;6.10;99.90;;;;;;5014698;28;20185;-83
2023/04/26 05:46:46;;;;;;;3.00;2.00;;;6.10;99.90;;;;;;5012786;28;20537;-83
2023/04/26 05:49:12;;;;;;;6.00;1.67;;;6.30;99.90;;;;;;5013298;28;20719;-85
2023/04/26 05:51:38;;;;;;;4.73;2.10;;;;;;;;;;4996654;28;20276;-88
2023/04/26 05:54:03;;;;;;;3.77;1.80;;;6.60;99.90;;;;;;5013049;28;20628;-85
2023/04/26 05:56:29;;;;;;;4.43;2.73;;;;;;;;;;5013616;28;20177;-84
2023/04/26 05:58:55;;;;;;;6.83;2.50;;;;;;;;;;5028884;28;20619;-85
2023/04/26 06:01:21;;;;;;;2.00;1.57;;;;;;;;;;5012785;28;20181;-84
2023/04/26 06:03:47;;;;;;;5.60;2.13;;;6.80;99.90;;;;;;5012422;28;20251;-85
2023/04/26 06:06:14;;;;;;;2.20;1.87;;;;;;;;;;5012441;28;20185;-85
2023/04/26 06:08:41;;;;;;;6.17;2.23;;;6.90;99.90;;;;;;5028720;28;20683;-88
2023/04/26 06:11:07;;;;;;;3.57;1.80;;;;;;;;;;5013620;28;20252;-85
2023/04/26 06:13:32;;;;;;;3.67;2.00;;;6.80;99.90;;;;;;5012399;28;20608;-85
2023/04/26 06:15:58;;;;;;;6.00;2.27;;;6.80;99.90;;;;;;5012481;28;20186;-85
2023/04/26 06:18:24;;;;;;;3.17;1.80;;;;;;;;;;5013710;28;20634;-85
2023/04/26 06:20:50;;;;;;;2.50;1.97;;;6.70;99.90;;;;;;5012924;28;20542;-85
2023/04/26 06:23:16;;;;;;;2.90;2.37;;;;;;;;;;5012243;28;20603;-85
2023/04/26 06:25:43;;;;;;;4.83;2.10;;;;;;;;;;5013033;28;20260;-89
2023/04/26 06:28:10;;;;;;;2.53;1.80;;;;;;;;;;5028447;28;20271;-85
2023/04/26 06:30:35;;;;;;;2.80;1.67;;;6.70;99.90;;;;;;5028536;28;20699;-84
2023/04/26 06:33:01;;;;;;;0.90;0.90;;;;;;;;;;4995698;28;20276;-84
2023/04/26 06:35:27;;;;;;;4.67;1.80;;;;;;;;;;5013667;28;20205;-83
2023/04/26 06:37:53;;;;;;;6.67;2.53;;;6.30;99.90;;;;;;5013229;28;20189;-85
2023/04/26 06:40:19;;;;;;;2.90;2.30;;;;;;;;;;5013354;28;20177;-83
2023/04/26 06:42:45;;;;;;;2.70;1.97;;;;;;;;;;5028221;28;20268;-86
2023/04/26 06:45:11;;;;;;;5.73;2.40;;;6.20;99.90;;;;;;5012023;28;20208;-83
2023/04/26 06:47:37;;;;;;;6.00;3.03;;;6.10;99.90;;;;;;5011936;28;20228;-83
2023/04/26 06:50:03;;;;;;;2.40;2.10;;;6.10;99.90;;;;;;5013235;28;20181;-84
2023/04/26 06:52:30;;;;;;;8.07;2.80;;;;;;;;;;4995862;28;20184;-84
2023/04/26 06:54:55;;;;;;;5.70;2.60;;;6.20;99.90;;;;;;5028005;28;20650;-84
2023/04/26 06:57:21;;;;;;;7.47;2.67;;;6.10;99.90;;;;;;5012753;28;20177;-84
2023/04/26 06:59:47;;;;;;;5.87;2.37;;;6.30;99.90;;;;;;5012892;28;20178;-88
2023/04/26 07:02:12;;;;;;;4.10;2.17;;;6.40;99.90;;;;;;4995476;28;20178;-83
2023/04/26 07:04:39;;;;;;;7.83;2.30;;;;;;;;;;4995534;28;20177;-84
2023/04/26 07:07:04;;;;;;;4.93;2.73;;;6.60;99.90;;;;;;5027860;28;20193;-84
2023/04/26 07:09:30;;;;;;;5.80;3.33;;;6.60;99.90;;;;;;5012018;28;20209;-83
2023/04/26 07:11:56;;;;;;;5.93;4.00;;;7.00;99.90;;;;;;5011590;28;20275;-84
2023/04/26 07:14:22;;;;;;;3.03;2.20;;;;;;;;;;5011959;28;20215;-84
2023/04/26 07:16:48;;;;;;;13.20;3.23;;;;;;;;;;5027956;28;20182;-84
2023/04/26 07:19:14;;;;;;;9.83;4.07;;;;;;;;;;5012774;28;20188;-84
2023/04/26 07:21:40;;;;;;;8.17;3.03;;;;;;;;;;5028123;28;20193;-85
2023/04/26 07:24:07;;;;;;;4.77;2.80;;;;;;;;;;5012359;28;20224;-85
2023/04/26 07:26:34;;;;;;;7.33;3.33;;;7.10;99.90;;;;;;5012546;28;20283;-84
2023/04/26 07:29:00;;;;;;;6.17;3.63;;;;;;;;;;5011457;28;20300;-84
2023/04/26 07:31:26;;;;;;;4.47;3.10;;;;;;;;;;5027594;28;20189;-84
2023/04/26 07:33:52;;;;;;;4.63;3.03;;;;;;;;;;5012466;28;20181;-88
2023/04/26 07:36:18;;;;;;;5.07;3.20;;;;;;;;;;5012572;28;20239;-84
2023/04/26 07:38:44;;;;;;;10.70;3.90;;;;;;;;;;5014262;28;20203;-84
2023/04/26 07:41:11;;;;;;;8.97;3.07;;;7.60;99.90;;;;;;5031535;28;20177;-83
2023/04/26 07:43:37;;;;;;;4.37;2.60;;;7.20;99.90;;;;;;5015450;28;20182;-84
2023/04/26 07:46:03;;;;;;;5.47;3.10;;;7.20;99.90;;;;;;5014662;28;20182;-84
2023/04/26 07:48:28;;;;;;;6.00;3.93;;;7.30;99.90;;;;;;5016316;28;20209;-84
2023/04/26 07:50:54;;;;;;;4.20;2.57;;;;;;;;;;5014928;28;20178;-87
2023/04/26 07:53:21;;;;;;;5.83;3.27;;;7.40;99.90;;;;;;5015000;28;20191;-84
2023/04/26 07:55:46;;;;;;;4.73;3.20;;;7.50;99.90;;;;;;5031144;28;20184;-85
2023/04/26 07:58:13;;;;;;;5.47;3.20;;;7.50;99.90;;;;;;4998185;28;20189;-84
2023/04/26 08:00:40;;;;;;;14.30;2.87;;;7.50;99.90;;;;;;5016010;28;20239;-84
2023/04/26 08:03:07;;;;;;;4.43;3.00;;;7.60;99.90;;;;;;5015653;28;20208;-84
2023/04/26 08:05:32;;;;;;;9.40;2.77;;;7.70;99.90;;;;;;5015935;28;20173;-84
2023/04/26 08:08:00;;;;;;;5.77;2.80;;;7.80;99.90;;;;;;5015985;28;20219;-85
2023/04/26 08:10:26;;;;;;;7.77;3.00;;;;;;;;;;5014813;28;20173;-83
2023/04/26 08:12:56;;;;;;;7.93;3.17;;;7.80;99.90;;;;;;5015826;28;20177;-83
2023/04/26 08:15:21;;;;;;;10.03;4.03;;;7.70;99.90;;;;;;5014642;28;20268;-82
2023/04/26 08:17:47;;;;;;;5.67;3.50;;;7.80;99.90;;;;;;4998304;28;20276;-83
2023/04/26 08:20:13;;;;;;;9.07;3.50;;;7.70;99.90;;;;;;5014368;28;20189;-83
2023/04/26 08:22:39;;;;;;;14.03;3.57;;;7.70;99.90;;;;;;4998173;28;20178;-83
2023/04/26 08:25:05;;;;;;;6.70;3.73;;;7.50;99.90;;;;;;4997807;28;20299;-84
2023/04/26 08:27:33;;;;;;;5.37;3.70;;;7.60;99.90;;;;;;5014223;28;20320;-83
2023/04/26 08:29:59;;;;;;;3.80;2.73;;;7.70;99.90;;;;;;5014396;28;20747;-83
2023/04/26 08:32:25;;;;;;;13.33;4.77;;;7.80;99.90;;;;;;4997651;28;20280;-83
2023/04/26 08:34:50;;;;;;;8.17;3.53;;;7.80;99.90;;;;;;5013902;28;20185;-83
2023/04/26 08:37:16;;;;;;;6.07;3.30;;;8.10;99.90;;;;;;4997406;28;20192;-83
2023/04/26 08:39:42;;;;;;;6.70;3.77;;;8.10;99.90;;;;;;5014949;28;20181;-83
2023/04/26 08:42:16;;;;;;;5.23;3.93;;;8.10;99.90;;;;;;5014074;28;20636;-84
2023/04/26 08:44:51;;;;;;;9.90;4.40;;;8.20;99.90;;;;;;5015458;28;20192;-83
2023/04/26 08:47:35;;;;;;;6.83;3.83;;;8.30;99.90;;;;;;5015293;28;20607;-83
2023/04/26 08:50:04;;;;;;;6.73;4.23;;;8.50;99.90;;;;;;5013953;28;20199;-83
2023/04/26 08:52:31;;;;;;;9.67;4.07;;;8.50;99.90;;;;;;5015042;28;20264;-83
2023/04/26 08:54:58;;;;;;;5.73;3.90;;;8.60;99.90;;;;;;5013670;28;20182;-84
2023/04/26 08:57:25;;;;;;;10.80;3.77;;;8.50;99.90;;;;;;5014136;28;20324;-84
2023/04/26 08:59:52;;;;;;;8.70;3.77;;;8.50;99.90;;;;;;5030302;28;20193;-83
2023/04/26 09:02:21;;;;;;;10.30;3.80;;;8.50;99.90;;;;;;5014706;28;20175;-84
2023/04/26 09:04:51;;;;;;;3.13;2.67;;;8.80;99.90;;;;;;5014122;28;20185;-82
2023/04/26 09:07:25;;;;;;;6.07;3.17;;;9.00;99.90;;;;;;5013677;28;20185;-83
2023/04/26 09:09:53;;;;;;;6.43;3.53;;;8.80;99.90;;;;;;5014719;28;20200;-84
2023/04/26 09:12:20;;;;;;;6.10;2.90;;;;;;;;;;5030009;28;20259;-84
2023/04/26 09:14:47;;;;;;;8.30;2.40;;;8.50;99.90;;;;;;5029717;28;20180;-84
2023/04/26 09:17:32;;;;;;;6.07;3.27;;;8.40;99.90;;;;;;5013406;28;20189;-84
2023/04/26 09:20:16;;;;;;;3.57;2.73;;;8.50;99.90;;;;;;5013439;28;20177;-83
2023/04/26 09:22:41;;;;;;;3.37;2.30;;;8.70;99.90;;;;;;5014108;28;20177;-85
2023/04/26 09:25:08;;;;;;;6.87;2.83;;;8.90;99.90;;;;;;5013572;28;20657;-84
2023/04/26 09:27:42;;;;;;;4.50;2.27;;;8.80;99.90;;;;;;5012910;28;20209;-84
2023/04/26 09:30:14;;;;;;;3.23;1.73;;;9.20;99.90;;;;;;5013264;28;20172;-84
2023/04/26 09:32:47;;;;;;;5.30;2.67;;;9.20;99.90;;;;;;5013813;28;20200;-84
2023/04/26 09:35:42;;;;;;;3.75;2.13;;;9.20;99.90;;;;;;5014587;28;20182;-84
2023/04/26 09:38:13;;;;;;;3.00;2.00;;;8.90;99.90;;;;;;5014662;28;20177;-84
2023/04/26 09:40:46;;;;;;;2.63;1.53;;;9.20;99.90;;;;;;5013983;28;20742;-84
2023/04/26 09:43:19;;;;;;;5.07;2.05;;;8.80;99.80;;;;;;5013522;28;20174;-85
2023/04/26 09:45:54;;;;;;;2.53;1.67;;;8.60;99.90;;;;;;5013844;28;20196;-84
2023/04/26 09:48:32;;;;;;;4.33;2.10;;;8.50;98.60;;;;;;5014086;28;20348;-85
2023/04/26 09:51:17;;;;;;;3.23;1.63;;;8.50;97.60;;;;;;5014600;28;20162;-83
2023/04/26 09:53:48;;;;;;;4.90;2.13;;;8.60;97.70;;;;;;5012401;28;20188;-84
2023/04/26 09:56:17;;;;;;;3.37;2.17;;;8.90;99.90;;;;;;5013048;28;20177;-86
2023/04/26 09:58:43;;;;;;;6.60;1.70;;;8.80;97.40;;;;;;5014730;28;20178;-85
2023/04/26 10:01:10;;;;;;;3.07;1.70;;;9.10;97.40;;;;;;5014069;28;20177;-84
2023/04/26 10:03:36;;;;;;;4.57;2.33;;;9.30;95.40;;;;;;5016224;28;20173;-84
2023/04/26 10:06:03;;;;;;;6.88;2.50;;;9.40;94.50;;;;;;4997059;28;20283;-86
2023/04/26 10:08:31;;;;;;;3.23;2.47;;;9.10;94.40;;;;;;4996326;28;20217;-85
2023/04/26 10:10:57;;;;;;;4.87;2.00;;;9.10;96.30;;;;;;5029412;28;20181;-85
2023/04/26 10:13:23;;;;;;;2.95;1.60;;;;;;;;;;5013730;28;20173;-84
2023/04/26 10:15:49;;;;;;;3.33;1.70;;;8.80;99.90;;;;;;5012677;28;20185;-83
2023/04/26 10:18:16;;;;;;;4.73;1.87;;;9.00;92.70;;;;;;5013956;28;20177;-85
2023/04/26 10:20:47;;;;;;;4.90;2.27;;;9.00;91.70;;;;;;4997709;28;20193;-85
2023/04/26 10:23:21;;;;;;;1.50;1.00;;;9.10;91.10;;;;;;5013154;28;20185;-85
2023/04/26 10:25:47;;;;;;;7.73;2.00;;;9.10;91.10;;;;;;5014170;28;20235;-84
2023/04/26 10:28:12;;;;;;;2.73;1.50;;;9.30;91.30;;;;;;4996260;28;20266;-84
2023/04/26 10:30:58;;;;;;;5.10;1.73;;;9.20;89.00;;;;;;5011935;28;20198;-84
2023/04/26 10:33:25;;;;;;;4.23;2.00;;;9.30;84.70;;;;;;5013372;28;20168;-83
2023/04/26 10:36:11;;;;;;;2.50;1.57;;;9.30;85.30;;;;;;5012539;28;20184;-84
2023/04/26 10:38:38;;;;;;;1.83;1.57;;;9.30;83.80;;;;;;5013276;28;20548;-84
2023/04/26 10:41:33;;;;;;;5.47;1.73;;;9.30;84.40;;;;;;5013344;28;20707;-83
2023/04/26 10:44:20;;;;;;;4.50;1.77;;;8.80;99.90;;;;;;5013649;28;20216;-85
2023/04/26 10:46:53;;;;;;;6.68;1.55;;;9.20;86.00;;;;;;5011767;28;20177;-84
2023/04/26 10:49:21;;;;;;;6.18;1.45;;;9.40;94.50;;;;;;5013330;28;20212;-84
2023/04/26 10:52:10;;;;;;;5.60;1.53;;;9.10;88.10;;;;;;5013454;28;20173;-84
2023/04/26 10:54:53;;;;;;;2.07;1.30;;;9.20;89.60;;;;;;5011771;28;20189;-84
2023/04/26 10:57:20;;;;;;;7.63;1.95;;;9.00;94.20;;;;;;5013275;28;20650;-83
2023/04/26 11:00:09;;;;;;;4.20;1.40;;;9.10;96.20;;;;;;5011800;28;20184;-83
2023/04/26 11:02:59;;;;;;;2.63;1.48;;;8.80;96.40;;;;;;5011909;28;20335;-83
2023/04/26 11:05:43;;;;;;;5.80;2.25;;;9.00;97.90;;;;;;5012195;28;20181;-84
2023/04/26 11:08:25;;;;;;;1.97;1.47;;;9.00;98.90;;;;;;5013086;28;20189;-83
2023/04/26 11:10:57;;;;;;;2.27;1.87;;;9.20;97.50;;;;;;5013525;28;20239;-84
2023/04/26 11:13:23;;;;;;;1.77;1.30;;;9.40;96.50;;;;;;5031242;28;20583;-84
2023/04/26 11:16:02;;;;;;;4.00;1.43;;;9.30;86.00;;;;;;5016854;28;20182;-87
2023/04/26 11:18:29;;;;;;;1.70;1.60;;;9.10;98.30;;;;;;5035073;28;20185;-84
2023/04/26 11:20:56;;;;;;;2.67;1.57;;;;;;;;;;4999924;28;20185;-86
2023/04/26 11:23:22;;;;;;;2.93;1.40;;;9.50;87.60;;;;;;5041194;28;20185;-85
2023/04/26 11:25:48;;;;;;;2.88;1.67;;;9.20;99.90;;;;;;5015023;28;20580;-83
2023/04/26 11:28:14;;;;;;;2.17;1.40;;;9.40;88.00;;;;;;4999881;28;20249;-86
2023/04/26 11:30:40;;;;;;;4.13;1.33;;;;;;;;;;5017361;28;20251;-85
2023/04/26 11:33:16;;;;;;;2.30;1.57;;;9.00;86.70;;;;;;5017041;28;20177;-85
2023/04/26 11:35:42;;;;;;;6.23;1.70;;;8.90;86.90;;;;;;5015086;28;20184;-85
2023/04/26 11:38:08;;;;;;;2.53;1.83;;;9.00;88.60;;;;;;5016496;28;20196;-85
2023/04/26 11:40:36;;;;;;;2.53;1.80;;;9.00;87.20;;;;;;4998707;28;20572;-84
2023/04/26 11:43:05;;;;;;;8.07;2.27;;;9.10;92.60;;;;;;5016461;28;20627;-82
2023/04/26 11:45:36;;;;;;;4.47;1.90;;;8.90;93.50;;;;;;5016847;28;20173;-85
2023/04/26 11:48:03;;;;;;;2.35;1.55;;;9.00;92.80;;;;;;5015788;28;20240;-84
2023/04/26 11:50:31;;;;;;;2.30;1.65;;;9.30;86.60;;;;;;5015150;28;20240;-86
2023/04/26 11:53:02;;;;;;;2.75;1.65;;;9.30;86.30;;;;;;5015461;28;20184;-83
2023/04/26 11:55:33;;;;;;;6.67;1.80;;;9.30;85.20;;;;;;5015290;28;20232;-83
2023/04/26 11:58:00;;;;;;;5.77;1.90;;;9.10;94.40;;;;;;5016596;28;20161;-84
2023/04/26 12:00:26;;;;;;;4.15;1.42;;;9.40;95.70;;;;;;5031387;28;20181;-83
2023/04/26 12:02:52;;;;;;;2.13;1.70;;;9.10;96.60;;;;;;4998514;28;20524;-87
2023/04/26 12:05:26;;;;;;;1.90;1.60;;;9.10;90.20;;;;;;5015916;28;20252;-87
2023/04/26 12:07:56;;;;;;;3.55;1.65;;;8.50;95.20;;;;;;4998792;28;20181;-86
2023/04/26 12:10:35;;;;;;;1.70;1.43;;;9.00;88.20;;;;;;5015064;28;20196;-85
2023/04/26 12:13:01;;;;;;;8.30;1.83;;;8.70;98.60;;;;;;5031630;28;20212;-84
2023/04/26 12:15:31;;;;;;;5.23;1.90;;;9.30;99.90;;;;;;4998460;28;20209;-85
2023/04/26 12:18:05;;;;;;;5.07;1.63;;;8.90;88.80;;;;;;5015915;28;20260;-86
2023/04/26 12:20:32;;;;;;;5.87;2.00;;;8.80;89.40;;;;;;5016452;28;20165;-85
2023/04/26 12:23:00;;;;;;;5.10;1.95;;;8.90;90.20;;;;;;5014812;28;20204;-85
2023/04/26 12:25:26;;;;;;;2.45;1.85;;;9.00;92.20;;;;;;5015774;28;20535;-84
2023/04/26 12:27:52;;;;;;;3.35;1.50;;;;;;;;;;5016797;28;20258;-84
2023/04/26 12:30:18;;;;;;;5.70;2.03;;;9.00;87.80;;;;;;5016006;28;20184;-85
2023/04/26 12:32:46;;;;;;;4.63;2.17;;;9.00;85.70;;;;;;5014370;28;20181;-85
2023/04/26 12:35:12;;;;;;;7.40;2.10;;;;;;;;;;4997838;28;20280;-83
2023/04/26 12:37:38;;;;;;;4.30;1.70;;;9.20;87.40;;;;;;5014069;28;20711;-87
2023/04/26 12:40:05;;;;;;;1.67;1.40;;;8.40;86.90;;;;;;5015127;28;20223;-83
2023/04/26 12:42:31;;;;;;;7.43;2.07;;;9.00;86.20;;;;;;4999033;28;20355;-85
2023/04/26 12:44:57;;;;;;;6.17;1.50;;;;;;;;;;4997714;28;20199;-83
2023/04/26 12:47:26;;;;;;;6.15;2.28;;;9.10;93.90;;;;;;5030720;28;20544;-84
2023/04/26 12:49:52;;;;;;;2.53;1.60;;;8.70;87.50;;;;;;5014373;28;20213;-83
2023/04/26 12:52:18;;;;;;;1.20;1.10;;;8.60;81.70;;;;;;5014110;28;20211;-84
2023/04/26 12:54:43;;;;;;;4.70;1.80;;;8.50;79.90;;;;;;5014430;28;20601;-85
2023/04/26 12:57:10;;;;;;;1.57;1.10;;;;;;;;;;5013516;28;20247;-84
2023/04/26 12:59:36;;;;;;;3.10;1.83;;;;;;;;;;5030072;28;20184;-84
2023/04/26 13:02:02;;;;;;;2.00;1.70;;;8.70;97.40;;;;;;5029640;28;20360;-84
2023/04/26 13:04:28;;;;;;;6.70;1.80;;;7.80;92.70;;;;;;4982258;28;20248;-85
2023/04/26 13:06:54;;;;;;;6.63;2.33;;;8.50;93.10;;;;;;4986729;28;20182;-85
2023/04/26 13:09:20;;;;;;;3.17;1.87;;;8.30;84.00;;;;;;5002733;28;20201;-84
2023/04/26 13:11:46;;;;;;;4.77;2.10;;;8.00;95.80;;;;;;4988042;28;20188;-85
2023/04/26 13:14:12;;;;;;;3.83;1.40;;;8.50;95.50;;;;;;5020706;28;20184;-86
2023/04/26 13:16:42;;;;;;;3.97;1.60;;;8.30;83.90;;;;;;5004016;28;20525;-86
2023/04/26 13:19:11;;;;;;;7.33;2.07;;;8.30;84.50;;;;;;5005506;28;20548;-84
2023/04/26 13:21:37;;;;;;;1.60;1.50;;;8.30;84.10;;;;;;5019807;28;20298;-85
2023/04/26 13:24:03;;;;;;;8.53;2.37;;;8.40;85.00;;;;;;5013110;28;20268;-86
2023/04/26 13:26:28;;;;;;;2.43;2.07;;;8.50;86.10;;;;;;5012918;28;20236;-85
2023/04/26 13:28:54;;;;;;;5.60;2.10;;;8.70;86.20;;;;;;5013230;28;20252;-84
2023/04/26 13:31:20;;;;;;;4.53;2.40;;;8.80;85.20;;;;;;5014865;28;20189;-85
2023/04/26 13:33:48;;;;;;;5.43;2.07;;;;;;;;;;5014112;28;20177;-87
2023/04/26 13:36:14;;;;;;;3.90;1.90;;;9.10;81.30;;;;;;5017862;28;20181;-85
2023/04/26 13:38:41;;;;;;;2.77;1.23;;;9.30;81.60;;;;;;5012841;28;20212;-88